createdAt,value
2023-10-07T04:38:22.466Z,0.373
2023-10-07T04:43:43.952Z,0.747
2023-10-07T04:46:16.993Z,1.494
2023-10-07T04:49:20.702Z,2.614
2023-10-07T04:51:53.911Z,4.108
2023-10-07T04:54:27.033Z,6.349
2023-10-07T04:57:20.509Z,10.831
2023-10-07T04:59:53.607Z,17.181
2023-10-07T05:02:26.701Z,27.265
2023-10-07T05:05:10.055Z,42.952
2023-10-07T05:07:43.070Z,63.495
2023-10-07T05:10:16.151Z,90.387
2023-10-07T05:12:49.265Z,124.002
2023-10-07T05:16:13.386Z,179.28
2023-10-07T05:18:46.416Z,230.076
2023-10-07T05:21:34.941Z,304.776
2023-10-07T05:24:07.942Z,403.38
2023-10-07T05:26:46.196Z,510.948
2023-10-07T05:29:19.372Z,633.456
2023-10-07T05:31:52.446Z,770.904
2023-10-07T05:34:25.581Z,902.376
2023-10-07T05:37:19.040Z,1015.92
2023-10-07T05:40:07.430Z,1117.512
2023-10-07T05:42:51.147Z,1225.08
2023-10-07T05:45:23.914Z,1344.6
2023-10-07T05:48:17.388Z,1553.76
2023-10-07T05:50:50.504Z,1661.328
2023-10-07T05:53:33.806Z,1780.848
2023-10-07T05:56:22.274Z,1888.416
2023-10-07T05:59:46.438Z,1972.08
2023-10-07T06:02:24.684Z,2031.84
2023-10-07T06:04:59.196Z,2139.408
2023-10-07T06:08:26.907Z,2270.88
2023-10-07T06:11:10.243Z,2497.968
2023-10-07T06:13:48.476Z,2521.872
2023-10-07T06:16:21.576Z,2748.96
2023-10-07T06:18:54.621Z,3705.12
2023-10-07T06:21:27.755Z,5258.88
2023-10-07T06:24:11.141Z,5521.824
2023-10-07T06:26:44.098Z,5689.152
2023-10-07T06:29:37.657Z,7983.936
2023-10-07T06:32:26.090Z,8270.784
2023-10-07T06:34:59.116Z,5832.576
2023-10-07T06:38:07.945Z,5999.904
2023-10-07T06:40:51.157Z,6167.232
2023-10-07T06:44:05.094Z,6645.312
2023-10-07T06:46:38.095Z,7744.896
2023-10-07T06:49:09.312Z,8270.784
2023-10-07T06:51:47.519Z,9418.176
2023-10-07T06:54:20.000Z,10278.72
2023-10-07T06:56:58.844Z,12621.312
2023-10-07T06:59:33.335Z,10374.336
2023-10-07T07:02:42.316Z,11999.808
2023-10-07T07:05:35.618Z,8987.904
2023-10-07T07:08:06.801Z,12334.464
2023-10-07T07:10:55.660Z,9752.832
2023-10-07T07:15:21.475Z,6071.616
2023-10-07T07:17:59.727Z,5163.264
2023-10-07T07:20:32.857Z,4517.856
2023-10-07T07:23:11.156Z,4063.68
2023-10-07T07:25:49.296Z,3944.16
2023-10-07T07:28:37.674Z,3920.256
2023-10-07T07:31:10.830Z,2868.48
2023-10-07T07:33:43.869Z,2354.544
2023-10-07T07:36:17.130Z,2964.096
2023-10-07T07:38:55.351Z,3131.424
2023-10-07T07:41:48.775Z,3059.712
2023-10-07T07:44:57.854Z,3155.328
2023-10-07T07:47:30.814Z,3513.888
2023-10-07T07:50:03.861Z,4804.704
2023-10-07T07:52:56.170Z,5306.688
2023-10-07T07:55:44.581Z,5474.016
2023-10-07T07:58:32.966Z,5713.056
2023-10-07T08:01:11.170Z,5211.072
2023-10-07T08:04:04.720Z,5474.016
2023-10-07T08:07:03.263Z,6358.464
2023-10-07T08:09:41.451Z,6167.232
2023-10-07T08:12:30.148Z,6836.544
2023-10-07T08:15:33.564Z,8127.36
2023-10-07T08:18:11.857Z,9752.832
2023-10-07T08:21:19.803Z,6884.352
2023-10-07T08:24:18.351Z,7458.048
2023-10-07T08:27:06.770Z,6358.464
2023-10-07T08:30:00.407Z,6358.464
2023-10-07T08:33:03.942Z,7027.776
2023-10-07T08:35:37.085Z,8175.168
2023-10-07T08:38:20.489Z,8844.48
2023-10-07T08:40:58.568Z,10326.528
2023-10-07T08:44:02.228Z,11856.384
2023-10-07T08:47:46.796Z,12430.08
2023-10-07T08:50:24.926Z,12812.544
2023-10-07T08:53:33.783Z,10708.992
2023-10-07T08:56:47.689Z,10948.032
2023-10-07T08:59:51.664Z,10661.184
2023-10-07T09:02:29.868Z,10804.608
2023-10-07T09:05:07.892Z,14055.552
2023-10-07T09:07:40.981Z,15585.408
2023-10-07T09:10:29.420Z,16350.336
2023-10-07T09:13:27.928Z,15585.408
2023-10-07T09:16:36.748Z,15681.024
2023-10-07T09:19:30.836Z,17306.496
2023-10-07T09:22:03.270Z,21704.832
2023-10-07T09:24:36.434Z,22852.224
2023-10-07T09:27:29.906Z,20079.36
2023-10-07T09:30:08.188Z,16159.104
2023-10-07T09:32:46.420Z,14629.248
2023-10-07T09:35:39.879Z,16828.416
2023-10-07T09:38:18.206Z,18740.736
2023-10-07T09:40:56.335Z,16924.032
2023-10-07T09:43:34.560Z,14533.632
2023-10-07T09:46:37.715Z,17019.648
2023-10-07T09:49:21.748Z,17975.808
2023-10-07T09:52:20.387Z,18071.424
2023-10-07T09:55:07.161Z,11952
2023-10-07T09:58:05.828Z,7266.816
2023-10-07T10:00:49.177Z,9083.52
2023-10-07T10:03:27.452Z,9609.408
2023-10-07T10:06:05.588Z,9752.832
2023-10-07T10:08:43.844Z,8031.744
2023-10-07T10:11:27.129Z,6358.464
2023-10-07T10:14:10.754Z,6119.424
2023-10-07T10:16:48.652Z,7410.24
2023-10-07T10:19:42.139Z,9609.408
2023-10-07T10:22:20.221Z,9370.368
2023-10-07T10:24:53.401Z,9322.56
2023-10-07T10:27:36.701Z,11521.728
2023-10-07T10:30:30.255Z,13290.624
2023-10-07T10:33:08.383Z,14246.784
2023-10-07T10:35:46.606Z,16445.952
2023-10-07T10:38:24.864Z,15872.256
2023-10-07T10:41:18.451Z,13577.472
2023-10-07T10:43:56.662Z,8892.288
2023-10-07T10:47:15.646Z,7697.088
2023-10-07T10:50:04.045Z,5689.152
2023-10-07T10:52:52.522Z,4637.376
2023-10-07T10:55:25.585Z,4685.184
2023-10-07T10:58:03.846Z,6597.504
2023-10-07T11:00:52.294Z,8079.552
2023-10-07T11:03:45.935Z,8892.288
2023-10-07T11:06:19.450Z,9848.448
2023-10-07T11:09:48.199Z,12047.616
2023-10-07T11:12:21.317Z,11187.072
2023-10-07T11:14:59.564Z,8366.4
2023-10-07T11:18:03.216Z,7601.472
2023-10-07T11:22:03.109Z,8222.976
2023-10-07T11:24:36.153Z,9705.024
2023-10-07T11:27:09.247Z,13195.008
2023-10-07T11:29:57.588Z,13673.088
2023-10-07T11:32:35.934Z,12908.16
2023-10-07T11:35:08.958Z,11187.072
2023-10-07T11:38:22.958Z,9991.872
2023-10-07T11:41:01.357Z,11760.768
2023-10-07T11:43:44.619Z,13195.008
2023-10-07T11:46:17.698Z,15011.712
2023-10-07T11:48:55.858Z,16350.336
2023-10-07T11:51:49.420Z,20366.208
2023-10-07T11:54:27.666Z,23617.152
2023-10-07T11:57:14.945Z,24095.232
2023-10-07T12:00:28.977Z,19983.744
2023-10-07T12:03:01.962Z,17593.344
2023-10-07T12:06:10.901Z,12525.696
2023-10-07T12:08:43.978Z,12525.696
2023-10-07T12:11:17.172Z,13099.392
2023-10-07T12:14:05.650Z,11712.96
2023-10-07T12:16:43.875Z,12143.232
2023-10-07T12:20:02.905Z,10900.224
2023-10-07T12:22:35.988Z,10230.912
2023-10-07T12:25:14.237Z,10613.376
2023-10-07T12:27:47.379Z,10565.568
2023-10-07T12:30:35.806Z,11378.304
2023-10-07T12:33:17.521Z,10708.992
2023-10-07T12:35:56.034Z,9705.024
2023-10-07T12:38:29.080Z,9896.256
2023-10-07T12:41:22.647Z,9179.136
2023-10-07T12:43:55.660Z,8796.672
2023-10-07T12:46:38.919Z,7410.24
2023-10-07T12:49:17.211Z,6215.04
2023-10-07T12:52:41.260Z,7027.776
2023-10-07T12:55:19.531Z,8748.864
2023-10-07T12:57:50.547Z,8366.4
2023-10-07T13:00:28.720Z,11282.688
2023-10-07T13:03:01.954Z,10756.8
2023-10-07T13:05:40.076Z,7553.664
2023-10-07T13:08:18.330Z,7171.2
2023-10-07T13:11:08.235Z,10469.952
2023-10-07T13:13:41.367Z,12143.232
2023-10-07T13:16:55.441Z,12191.04
2023-10-07T13:19:38.702Z,11234.88
2023-10-07T13:22:11.884Z,11473.92
2023-10-07T13:24:55.261Z,12430.08
2023-10-07T13:27:43.652Z,10995.84
2023-10-07T13:30:16.768Z,9944.064
2023-10-07T13:32:49.916Z,9083.52
2023-10-07T13:35:50.313Z,10039.68
2023-10-07T13:38:28.459Z,11282.688
2023-10-07T13:41:11.733Z,12143.232
2023-10-07T13:43:54.986Z,12095.424
2023-10-07T13:46:33.287Z,12334.464
2023-10-07T13:49:23.247Z,12238.848
2023-10-07T13:51:56.329Z,11139.264
2023-10-07T13:54:39.783Z,10135.296
2023-10-07T13:57:18.105Z,9226.944
2023-10-07T13:59:56.241Z,8844.48
2023-10-07T14:02:34.521Z,8987.904
2023-10-07T14:05:30.454Z,9035.712
2023-10-07T14:08:24.008Z,9226.944
2023-10-07T14:11:02.240Z,9800.64
2023-10-07T14:14:51.799Z,11665.152
2023-10-07T14:17:30.063Z,15011.712
2023-10-07T14:20:00.809Z,8653.248
2023-10-07T14:22:49.151Z,9705.024
2023-10-07T14:25:22.390Z,9752.832
2023-10-07T14:28:00.687Z,9465.984
2023-10-07T14:30:33.730Z,8175.168
2023-10-07T14:33:06.882Z,5378.4
2023-10-07T14:35:40.074Z,3896.352
2023-10-07T14:38:18.246Z,3035.808
2023-10-07T14:41:11.734Z,3107.52
2023-10-07T14:44:20.575Z,3370.464
2023-10-07T14:47:09.013Z,3920.256
2023-10-07T14:49:42.158Z,4517.856
2023-10-07T14:52:45.858Z,4852.512
2023-10-07T14:55:39.406Z,4541.76
2023-10-07T14:58:48.281Z,4493.952
2023-10-07T15:01:26.452Z,4852.512
2023-10-07T15:03:59.716Z,4470.048
2023-10-07T15:06:32.745Z,3394.368
2023-10-07T15:09:05.933Z,3011.904
2023-10-07T15:12:14.823Z,3047.76
2023-10-07T15:14:47.819Z,2390.4
2023-10-07T15:17:20.995Z,1577.664
2023-10-07T15:19:59.173Z,1254.96
2023-10-07T15:22:42.471Z,1649.376
2023-10-07T15:25:20.745Z,2163.312
2023-10-07T15:28:19.315Z,2497.968
2023-10-07T15:30:52.476Z,2199.168
2023-10-07T15:33:25.575Z,2235.024
2023-10-07T15:36:44.573Z,2366.496
2023-10-07T15:39:17.753Z,2139.408
2023-10-07T15:42:01.014Z,1864.512
2023-10-07T15:44:44.428Z,1685.232
2023-10-07T15:47:22.652Z,1482.048
2023-10-07T15:50:00.877Z,1213.128
2023-10-07T15:52:39.074Z,1117.512
2023-10-07T15:55:17.326Z,1237.032
2023-10-07T15:58:00.552Z,1069.704
2023-10-07T16:00:38.848Z,944.208
2023-10-07T16:03:22.199Z,735.048
2023-10-07T16:05:55.302Z,591.624
2023-10-07T16:08:33.436Z,454.176
2023-10-07T16:11:11.660Z,372.006
2023-10-07T16:14:00.008Z,298.8
2023-10-07T16:16:33.077Z,236.052
2023-10-07T16:19:16.402Z,195.714
2023-10-07T16:21:49.546Z,162.846
2023-10-07T16:24:22.680Z,135.207
2023-10-07T16:26:55.852Z,112.05
2023-10-07T16:29:39.186Z,88.146
2023-10-07T16:32:12.306Z,78.061
2023-10-07T16:35:36.393Z,74.7
2023-10-07T16:38:14.564Z,79.929
2023-10-07T16:41:28.540Z,74.326
2023-10-07T16:44:01.709Z,55.278
2023-10-07T16:46:39.968Z,36.976
2023-10-07T16:49:23.278Z,22.41
2023-10-07T16:52:06.520Z,12.699
2023-10-07T16:54:49.881Z,7.47
2023-10-07T16:57:28.128Z,4.482
2023-10-07T17:00:01.248Z,2.988
2023-10-07T17:02:54.867Z,1.494
2023-10-07T17:06:34.167Z,0.747
2023-10-07T17:13:27.591Z,0
